Time;durP1;ratioP1;P1;durP2;ratioP2;P2;SDS_P1;SDS_P2;PMS_P1;PMS_P2;Temp;Humidity;BMP_temperature;BMP_pressure;BME280_temperature;BME280_humidity;BME280_pressure;Samples;Min_cycle;Max_cycle;Signal;HPM_P1;HPM_P2
2023/03/28 00:00:07;;;;;;;11.85;2.13;;;5.60;99.90;;;;;;5053297;28;20073;-58
2023/03/28 00:02:32;;;;;;;8.00;2.08;;;5.60;99.90;;;;;;5053295;28;20077;-59
2023/03/28 00:04:58;;;;;;;11.25;2.70;;;5.60;99.90;;;;;;5053120;28;20080;-58
2023/03/28 00:07:26;;;;;;;9.50;2.22;;;5.60;1.00;;;;;;5053135;28;20411;-59
2023/03/28 00:09:51;;;;;;;8.13;2.00;;;5.70;1.00;;;;;;5053321;28;20045;-58
2023/03/28 00:12:17;;;;;;;7.25;2.15;;;5.50;61.70;;;;;;5049837;28;20063;-58
2023/03/28 00:14:45;;;;;;;10.32;2.03;;;5.60;99.90;;;;;;5044409;28;20045;-58
2023/03/28 00:17:11;;;;;;;15.55;2.72;;;5.40;99.90;;;;;;5033226;28;20065;-59
2023/03/28 00:19:39;;;;;;;17.00;2.78;;;5.40;1.00;;;;;;5043552;28;20041;-58
2023/03/28 00:22:05;;;;;;;10.75;2.75;;;5.30;80.30;;;;;;5048059;28;20053;-59
2023/03/28 00:24:34;;;;;;;7.18;2.15;;;5.20;99.90;;;;;;5045843;28;20053;-58
2023/03/28 00:27:00;;;;;;;19.27;2.75;;;5.20;1.00;;;;;;5053259;28;20033;-58
2023/03/28 00:29:28;;;;;;;11.38;2.85;;;5.20;99.90;;;;;;5051907;28;20078;-58
2023/03/28 00:31:54;;;;;;;14.70;2.65;;;5.10;1.00;;;;;;5047293;28;20045;-59
2023/03/28 00:34:20;;;;;;;14.15;2.17;;;5.20;41.70;;;;;;5038975;28;20029;-58
2023/03/28 00:36:45;;;;;;;18.35;2.75;;;5.30;99.90;;;;;;5044151;28;20037;-59
2023/03/28 00:39:12;;;;;;;8.65;1.90;;;5.40;99.90;;;;;;5063191;28;20120;-58
2023/03/28 00:41:41;;;;;;;8.77;2.10;;;5.30;1.00;;;;;;5051875;28;20037;-58
2023/03/28 00:44:44;;;;;;;12.77;2.83;;;5.50;1.00;;;;;;5048224;28;20034;-58
2023/03/28 00:47:25;;;;;;;14.88;3.40;;;5.40;1.00;;;;;;5058867;28;20850;-59
2023/03/28 00:49:54;;;;;;;13.98;2.83;;;5.40;12.50;;;;;;5043794;28;20477;-58
2023/03/28 00:52:24;;;;;;;17.63;2.75;;;5.30;49.70;;;;;;5052256;28;20051;-58
2023/03/28 00:54:51;;;;;;;15.73;2.65;;;5.30;9.00;;;;;;5052362;28;20060;-58
2023/03/28 00:57:17;;;;;;;14.30;3.28;;;5.40;1.00;;;;;;5052102;28;20079;-59
2023/03/28 00:59:43;;;;;;;11.02;2.70;;;5.40;99.90;;;;;;5052056;28;20045;-58
2023/03/28 01:02:10;;;;;;;12.98;2.63;;;5.40;1.00;;;;;;5045262;28;20048;-59
2023/03/28 01:04:48;;;;;;;13.48;2.42;;;5.40;1.00;;;;;;5032276;28;20048;-58
2023/03/28 01:07:15;;;;;;;18.73;2.80;;;5.30;99.90;;;;;;5032405;28;20049;-58
2023/03/28 01:09:41;;;;;;;8.65;2.42;;;5.30;99.90;;;;;;5032355;28;20085;-58
2023/03/28 01:12:09;;;;;;;14.35;2.75;;;5.10;25.50;;;;;;5032266;28;20041;-59
2023/03/28 01:14:36;;;;;;;13.68;2.65;;;5.10;1.00;;;;;;5032047;28;20052;-58
2023/03/28 01:17:02;;;;;;;16.45;2.92;;;5.00;1.00;;;;;;5032119;28;20037;-58
2023/03/28 01:19:41;;;;;;;11.70;2.80;;;4.90;1.00;;;;;;5047342;28;20043;-58
2023/03/28 01:22:12;;;;;;;8.95;1.88;;;5.00;1.00;;;;;;5032068;28;20045;-59
2023/03/28 01:24:56;;;;;;;14.40;2.47;;;4.90;1.00;;;;;;5032137;28;20066;-61
2023/03/28 01:27:24;;;;;;;10.70;2.88;;;4.90;1.00;;;;;;5032275;28;20094;-58
2023/03/28 01:30:14;;;;;;;11.13;2.22;;;5.10;1.00;;;;;;5045032;28;20127;-58
2023/03/28 01:32:58;;;;;;;14.38;2.97;;;5.10;1.00;;;;;;5047642;28;20132;-59
2023/03/28 01:35:33;;;;;;;10.60;2.47;;;5.30;1.00;;;;;;5039741;28;20041;-58
2023/03/28 01:38:18;;;;;;;10.93;2.63;;;5.30;1.00;;;;;;5033228;28;20049;-58
2023/03/28 01:40:55;;;;;;;13.43;2.22;;;5.50;38.40;;;;;;5051703;28;20094;-58
2023/03/28 01:43:42;;;;;;;13.95;3.33;;;5.70;95.70;;;;;;5044675;28;20074;-58
2023/03/28 01:46:28;;;;;;;;;;;5.80;99.90;;;;;;5051823;28;20051;-58
2023/03/28 01:49:06;;;;;;;7.35;2.42;;;5.80;99.90;;;;;;5037691;28;20149;-58
2023/03/28 01:51:57;;;;;;;9.68;2.10;;;5.80;1.00;;;;;;5032797;28;20041;-59
2023/03/28 01:54:48;;;;;;;8.50;2.05;;;5.70;36.70;;;;;;5053846;28;20099;-58
2023/03/28 01:57:40;;;;;;;11.65;2.30;;;5.60;99.90;;;;;;5045357;28;20033;-58
2023/03/28 02:00:29;;;;;;;5.55;1.63;;;5.70;99.90;;;;;;5050886;28;20499;-59
2023/03/28 02:03:23;;;;;;;11.52;2.28;;;5.70;99.90;;;;;;5051158;28;20167;-59
2023/03/28 02:05:51;;;;;;;17.95;2.53;;;5.50;1.00;;;;;;5050918;28;20040;-59
2023/03/28 02:08:19;;;;;;;13.10;2.47;;;5.50;1.00;;;;;;5050480;28;20037;-58
2023/03/28 02:10:45;;;;;;;14.27;2.35;;;5.40;1.00;;;;;;5049912;28;20144;-58
2023/03/28 02:13:17;;;;;;;14.43;2.50;;;5.20;1.00;;;;;;5050406;28;20033;-58
2023/03/28 02:15:47;;;;;;;14.05;2.55;;;5.20;1.00;;;;;;5050756;28;20048;-58
2023/03/28 02:18:22;;;;;;;12.35;2.53;;;5.20;1.00;;;;;;5050886;28;20136;-58
2023/03/28 02:20:59;;;;;;;10.38;2.58;;;5.20;25.90;;;;;;5030622;28;20464;-58
2023/03/28 02:23:35;;;;;;;11.20;2.55;;;5.10;99.90;;;;;;5030927;28;20568;-58
2023/03/28 02:26:01;;;;;;;12.98;2.58;;;5.20;99.90;;;;;;5050746;28;20053;-58
2023/03/28 02:28:28;;;;;;;10.25;2.88;;;5.10;99.90;;;;;;5034237;28;20447;-59
2023/03/28 02:30:54;;;;;;;9.02;2.15;;;5.00;99.90;;;;;;5049281;28;20115;-58
2023/03/28 02:33:38;;;;;;;17.58;3.25;;;5.10;1.00;;;;;;5050412;28;20546;-58
2023/03/28 02:36:22;;;;;;;16.17;2.28;;;4.90;1.00;;;;;;5050669;28;20040;-58
2023/03/28 02:38:50;;;;;;;12.82;2.13;;;5.00;1.00;;;;;;5050544;28;20044;-58
2023/03/28 02:41:26;;;;;;;6.75;2.20;;;5.30;1.00;;;;;;5050434;28;20041;-58
2023/03/28 02:44:11;;;;;;;7.97;1.93;;;4.80;99.90;;;;;;5049785;28;20048;-58
2023/03/28 02:46:53;;;;;;;9.27;2.08;;;4.80;99.90;;;;;;5050409;28;20403;-58
2023/03/28 02:49:36;;;;;;;7.68;1.85;;;4.80;25.70;;;;;;5050385;28;20128;-58
2023/03/28 02:52:29;;;;;;;6.60;1.95;;;4.70;1.00;;;;;;5050144;28;20115;-58
2023/03/28 02:55:04;;;;;;;12.80;2.20;;;4.70;99.90;;;;;;5050703;28;20071;-58
2023/03/28 02:57:38;;;;;;;6.22;1.90;;;4.70;99.90;;;;;;5050054;28;20040;-58
2023/03/28 03:00:11;;;;;;;15.30;2.00;;;4.60;1.00;;;;;;5029842;28;20061;-58
2023/03/28 03:02:38;;;;;;;9.73;1.90;;;4.70;1.00;;;;;;5041344;28;20072;-58
2023/03/28 03:05:05;;;;;;;7.70;2.60;;;4.50;99.90;;;;;;5053516;28;20046;-58
2023/03/28 03:07:31;;;;;;;8.95;2.17;;;4.60;99.90;;;;;;5034054;28;20119;-59
2023/03/28 03:09:57;;;;;;;8.98;2.03;;;4.50;49.90;;;;;;5040380;28;20041;-58
2023/03/28 03:12:23;;;;;;;6.50;1.75;;;4.50;1.00;;;;;;5030294;28;20038;-59
2023/03/28 03:14:49;;;;;;;7.07;2.03;;;4.50;1.00;;;;;;5047361;28;20079;-58
2023/03/28 03:17:16;;;;;;;15.13;1.95;;;4.40;1.00;;;;;;5049291;28;20075;-58
2023/03/28 03:19:42;;;;;;;11.32;1.88;;;4.50;1.00;;;;;;5045612;28;20058;-58
2023/03/28 03:22:08;;;;;;;5.45;1.98;;;4.50;1.00;;;;;;5032931;28;20168;-59
2023/03/28 03:24:35;;;;;;;6.65;1.98;;;4.40;1.00;;;;;;5034310;28;20053;-58
2023/03/28 03:27:01;;;;;;;6.10;1.55;;;4.40;1.00;;;;;;5033071;28;20060;-58
2023/03/28 03:29:26;;;;;;;9.05;1.90;;;4.40;1.00;;;;;;5035771;28;20049;-58
2023/03/28 03:31:52;;;;;;;6.15;1.92;;;4.50;99.90;;;;;;5040759;28;20048;-58
2023/03/28 03:34:18;;;;;;;8.70;2.35;;;4.50;99.90;;;;;;5053326;28;20068;-58
2023/03/28 03:36:43;;;;;;;5.30;1.85;;;4.50;99.90;;;;;;5051735;28;20037;-59
2023/03/28 03:39:09;;;;;;;5.43;1.80;;;4.50;99.90;;;;;;5034283;28;20525;-58
2023/03/28 03:41:35;;;;;;;12.07;2.20;;;4.50;99.90;;;;;;5033897;28;20042;-59
2023/03/28 03:44:00;;;;;;;7.43;1.83;;;4.50;99.90;;;;;;5040153;28;20050;-58
2023/03/28 03:46:26;;;;;;;8.40;1.75;;;4.50;58.60;;;;;;5032460;28;20045;-58
2023/03/28 03:48:52;;;;;;;11.45;2.10;;;4.50;1.00;;;;;;5033669;28;20041;-58
2023/03/28 03:51:17;;;;;;;6.90;1.58;;;4.50;1.00;;;;;;5033685;28;20041;-58
2023/03/28 03:53:43;;;;;;;2.88;1.50;;;4.50;1.00;;;;;;5033776;28;20091;-59
2023/03/28 03:56:09;;;;;;;4.70;1.40;;;4.50;1.00;;;;;;5044592;28;20056;-58
2023/03/28 03:58:35;;;;;;;3.63;1.48;;;4.60;99.90;;;;;;5038265;28;20045;-58
2023/03/28 04:01:00;;;;;;;5.25;1.95;;;4.70;99.90;;;;;;5038421;28;20064;-59
2023/03/28 04:03:27;;;;;;;10.55;1.70;;;4.80;1.00;;;;;;5053406;28;20454;-58
2023/03/28 04:05:55;;;;;;;20.85;2.95;;;5.00;1.00;;;;;;5039972;28;20044;-58
2023/03/28 04:08:20;;;;;;;5.97;1.63;;;5.20;1.00;;;;;;5048861;28;20049;-58
2023/03/28 04:10:46;;;;;;;9.35;1.92;;;5.20;34.80;;;;;;5035677;28;20054;-58
2023/03/28 04:13:12;;;;;;;6.22;2.03;;;5.30;71.90;;;;;;5033271;28;20033;-58
2023/03/28 04:15:37;;;;;;;8.80;2.17;;;5.40;65.50;;;;;;5032987;28;20042;-59
2023/03/28 04:18:04;;;;;;;7.63;1.73;;;5.40;39.20;;;;;;5042815;28;20037;-59
2023/03/28 04:20:30;;;;;;;5.40;1.50;;;5.70;14.20;;;;;;5052668;28;20142;-59
2023/03/28 04:22:57;;;;;;;5.35;1.70;;;5.50;1.00;;;;;;5052753;28;20051;-59
2023/03/28 04:25:23;;;;;;;10.48;2.40;;;5.40;1.00;;;;;;5040644;28;20103;-58
2023/03/28 04:27:53;;;;;;;6.78;1.38;;;5.40;1.00;;;;;;5044220;28;20071;-60
2023/03/28 04:30:20;;;;;;;9.55;1.67;;;5.30;1.00;;;;;;5047303;28;20494;-59
2023/03/28 04:32:49;;;;;;;7.82;1.55;;;5.40;1.00;;;;;;5050149;28;20040;-58
2023/03/28 04:35:15;;;;;;;5.50;1.65;;;5.40;1.00;;;;;;5045914;28;20037;-59
2023/03/28 04:37:41;;;;;;;5.97;1.85;;;5.40;99.90;;;;;;5035558;28;20059;-58
2023/03/28 04:40:09;;;;;;;5.85;1.88;;;5.50;99.90;;;;;;5044318;28;20048;-58
2023/03/28 04:42:38;;;;;;;4.40;1.75;;;5.70;99.90;;;;;;5040060;28;20052;-58
2023/03/28 04:45:05;;;;;;;8.88;1.80;;;5.70;99.90;;;;;;5032522;28;20053;-58
2023/03/28 04:47:31;;;;;;;6.57;1.80;;;5.80;1.00;;;;;;5032638;28;20159;-58
2023/03/28 04:49:57;;;;;;;5.53;1.58;;;5.70;99.90;;;;;;5057914;28;20140;-58
2023/03/28 04:52:23;;;;;;;4.70;1.55;;;5.70;99.90;;;;;;5032603;28;20038;-58
2023/03/28 04:54:50;;;;;;;4.20;1.40;;;5.70;73.00;;;;;;5032647;28;20124;-58
2023/03/28 04:57:16;;;;;;;4.95;1.55;;;5.50;1.00;;;;;;5032805;28;20037;-58
2023/03/28 04:59:42;;;;;;;5.97;1.40;;;5.50;1.00;;;;;;5032645;28;20379;-58
2023/03/28 05:02:08;;;;;;;6.53;1.70;;;5.40;1.00;;;;;;5046782;28;20041;-58
2023/03/28 05:04:34;;;;;;;4.65;1.60;;;5.30;99.90;;;;;;5051240;28;20041;-58
2023/03/28 05:07:00;;;;;;;5.93;1.40;;;5.30;99.90;;;;;;5052348;28;20033;-58
2023/03/28 05:09:25;;;;;;;4.32;1.17;;;5.30;99.90;;;;;;5046667;28;20247;-58
2023/03/28 05:11:51;;;;;;;5.30;1.50;;;5.20;99.50;;;;;;5046608;28;20116;-58
2023/03/28 05:14:16;;;;;;;5.80;1.65;;;5.20;29.20;;;;;;5049856;28;20133;-58
2023/03/28 05:16:42;;;;;;;8.13;1.60;;;5.10;1.00;;;;;;5051885;28;20132;-58
2023/03/28 05:19:08;;;;;;;11.38;1.58;;;5.00;1.00;;;;;;5051949;28;20042;-58
2023/03/28 05:21:35;;;;;;;11.52;1.70;;;4.90;1.00;;;;;;5051333;28;20503;-59
2023/03/28 05:24:00;;;;;;;4.70;1.75;;;4.80;1.00;;;;;;5051770;28;20053;-58
2023/03/28 05:26:26;;;;;;;10.68;2.00;;;4.70;1.00;;;;;;5038303;28;20120;-59
2023/03/28 05:28:52;;;;;;;3.47;1.35;;;4.70;1.00;;;;;;5045368;28;20043;-58
2023/03/28 05:31:18;;;;;;;7.20;1.58;;;4.70;1.00;;;;;;5047540;28;20142;-59
2023/03/28 05:33:44;;;;;;;6.35;2.17;;;4.60;17.20;;;;;;5031772;28;20559;-58
2023/03/28 05:36:10;;;;;;;2.60;1.33;;;4.70;99.90;;;;;;5031709;28;20045;-59
2023/03/28 05:38:36;;;;;;;4.53;2.13;;;4.60;99.90;;;;;;5032741;28;20141;-58
2023/03/28 05:41:02;;;;;;;1.75;1.38;;;4.70;99.90;;;;;;5033008;28;20994;-58
2023/03/28 05:43:27;;;;;;;9.50;2.17;;;4.60;99.90;;;;;;5030728;28;20045;-59
2023/03/28 05:45:53;;;;;;;4.60;1.17;;;4.70;99.90;;;;;;5031598;28;20049;-59
2023/03/28 05:48:18;;;;;;;3.47;1.50;;;4.70;1.00;;;;;;5031722;28;20084;-59
2023/03/28 05:50:46;;;;;;;4.90;1.63;;;4.70;1.00;;;;;;5031274;28;20049;-58
2023/03/28 05:53:11;;;;;;;5.28;1.40;;;4.80;1.00;;;;;;5040905;28;20040;-59
2023/03/28 05:55:37;;;;;;;10.05;1.50;;;4.80;1.00;;;;;;5039790;28;20033;-59
2023/03/28 05:58:04;;;;;;;6.88;1.67;;;4.90;1.00;;;;;;5031325;28;20045;-59
2023/03/28 06:00:29;;;;;;;7.68;1.58;;;4.90;1.00;;;;;;5031585;28;20041;-59
2023/03/28 06:02:55;;;;;;;3.75;1.27;;;5.00;1.00;;;;;;5043728;28;20510;-58
2023/03/28 06:05:20;;;;;;;7.45;1.80;;;5.00;1.00;;;;;;5042515;28;20064;-58
2023/03/28 06:07:46;;;;;;;4.68;1.23;;;5.20;1.00;;;;;;5050486;28;20575;-59
2023/03/28 06:10:14;;;;;;;5.53;1.45;;;5.50;1.00;;;;;;5031990;28;20140;-59
2023/03/28 06:12:40;;;;;;;6.28;1.88;;;5.60;1.00;;;;;;5031000;28;20042;-59
2023/03/28 06:15:07;;;;;;;5.65;1.60;;;5.80;99.90;;;;;;5030951;28;20083;-58
2023/03/28 06:17:32;;;;;;;2.25;1.13;;;5.80;99.90;;;;;;5031145;28;20120;-59
2023/03/28 06:19:58;;;;;;;7.57;1.60;;;5.90;99.90;;;;;;5045606;28;20125;-59
2023/03/28 06:22:24;;;;;;;4.05;1.67;;;5.90;99.90;;;;;;5050051;28;20135;-59
2023/03/28 06:24:49;;;;;;;8.68;1.70;;;6.10;99.90;;;;;;5036207;28;20049;-59
2023/03/28 06:27:15;;;;;;;2.80;1.40;;;6.10;99.90;;;;;;5043231;28;20486;-59
2023/03/28 06:29:41;;;;;;;7.78;1.52;;;6.10;99.90;;;;;;5040290;28;20034;-59
2023/03/28 06:32:06;;;;;;;6.70;1.85;;;6.20;99.90;;;;;;5048385;28;20517;-59
2023/03/28 06:34:32;;;;;;;1.90;1.23;;;6.20;93.40;;;;;;5047148;28;20155;-59
2023/03/28 06:36:59;;;;;;;5.15;1.50;;;6.20;47.20;;;;;;5036717;28;20036;-59
2023/03/28 06:39:24;;;;;;;5.13;1.52;;;6.30;16.50;;;;;;5036211;28;20124;-59
2023/03/28 06:41:50;;;;;;;7.47;1.85;;;6.30;1.00;;;;;;5040401;28;20108;-59
2023/03/28 06:44:16;;;;;;;5.32;1.40;;;6.40;1.00;;;;;;5044186;28;20106;-59
2023/03/28 06:46:41;;;;;;;6.20;1.60;;;6.50;1.00;;;;;;5046521;28;20044;-59
2023/03/28 06:49:07;;;;;;;1.35;1.20;;;6.50;1.00;;;;;;5035969;28;20132;-59
2023/03/28 06:51:33;;;;;;;6.05;1.58;;;6.50;1.00;;;;;;5016863;28;20042;-59
2023/03/28 06:53:58;;;;;;;3.15;1.38;;;6.50;99.90;;;;;;5031790;28;20336;-59
2023/03/28 06:56:24;;;;;;;4.05;1.35;;;6.50;99.90;;;;;;5042084;28;20047;-59
2023/03/28 06:58:50;;;;;;;14.13;1.83;;;6.50;99.90;;;;;;5039042;28;20053;-59
2023/03/28 07:01:16;;;;;;;3.25;1.33;;;6.50;99.90;;;;;;5039062;28;20029;-59
2023/03/28 07:03:42;;;;;;;3.08;1.48;;;6.50;99.90;;;;;;5033751;28;20025;-59
2023/03/28 07:06:09;;;;;;;8.88;1.67;;;6.50;99.90;;;;;;5039176;28;20041;-59
2023/03/28 07:08:35;;;;;;;4.78;1.38;;;6.50;99.90;;;;;;5034619;28;20064;-59
2023/03/28 07:11:01;;;;;;;3.97;1.27;;;6.50;99.90;;;;;;5030686;28;20072;-59
2023/03/28 07:13:27;;;;;;;7.28;1.25;;;6.50;99.90;;;;;;5031683;28;20134;-59
2023/03/28 07:16:04;;;;;;;17.67;1.73;;;6.50;99.90;;;;;;5030155;28;20064;-59
2023/03/28 07:18:30;;;;;;;5.65;1.40;;;6.60;99.90;;;;;;5030488;28;20499;-59
2023/03/28 07:20:56;;;;;;;8.00;1.70;;;6.50;99.90;;;;;;5045885;28;20098;-59
2023/03/28 07:23:21;;;;;;;3.38;1.70;;;6.50;99.90;;;;;;5045345;28;20037;-59
2023/03/28 07:25:47;;;;;;;8.35;1.63;;;6.60;99.90;;;;;;5042300;28;20096;-59
2023/03/28 07:28:12;;;;;;;3.25;1.63;;;6.60;99.90;;;;;;5030028;28;20423;-59
2023/03/28 07:30:38;;;;;;;2.78;1.42;;;6.70;99.90;;;;;;5029736;28;20431;-59
2023/03/28 07:33:03;;;;;;;4.90;1.45;;;6.70;99.90;;;;;;5030806;28;20107;-59
2023/03/28 07:35:29;;;;;;;5.20;1.27;;;7.10;99.90;;;;;;5039628;28;20099;-59
2023/03/28 07:37:55;;;;;;;2.80;1.55;;;7.00;99.90;;;;;;5044961;28;20040;-59
2023/03/28 07:40:20;;;;;;;7.32;1.80;;;7.00;99.90;;;;;;5045660;28;20041;-59
2023/03/28 07:42:48;;;;;;;4.72;1.25;;;7.10;84.70;;;;;;5031006;28;20065;-59
2023/03/28 07:45:14;;;;;;;4.38;1.30;;;7.10;45.80;;;;;;5030157;28;20399;-59
2023/03/28 07:47:40;;;;;;;7.82;1.40;;;6.90;30.20;;;;;;5044859;28;20063;-59
2023/03/28 07:50:06;;;;;;;7.50;1.33;;;7.00;31.20;;;;;;5036270;28;20052;-59
2023/03/28 07:52:33;;;;;;;6.15;1.60;;;6.70;30.50;;;;;;5036037;28;20045;-59
2023/03/28 07:54:58;;;;;;;4.15;1.23;;;6.60;15.30;;;;;;5034692;28;20040;-59
2023/03/28 07:57:24;;;;;;;2.15;1.00;;;6.50;1.00;;;;;;5032878;28;20041;-59
2023/03/28 07:59:50;;;;;;;3.30;1.08;;;6.50;1.00;;;;;;5041812;28;20158;-59
2023/03/28 08:02:15;;;;;;;7.93;1.45;;;6.60;1.00;;;;;;5042234;28;20032;-59
2023/03/28 08:04:41;;;;;;;4.28;1.15;;;7.00;6.80;;;;;;5046733;28;20103;-59
2023/03/28 08:07:08;;;;;;;4.05;1.10;;;7.40;13.50;;;;;;5046349;28;20098;-59
2023/03/28 08:09:34;;;;;;;5.47;1.60;;;7.90;19.90;;;;;;5039729;28;20111;-59
2023/03/28 08:11:59;;;;;;;7.70;1.58;;;8.40;8.60;;;;;;5050973;28;20479;-59
2023/03/28 08:14:25;;;;;;;6.97;1.90;;;8.80;1.00;;;;;;5044480;28;20614;-60
2023/03/28 08:16:50;;;;;;;5.63;2.05;;;8.90;1.00;;;;;;5049433;28;20127;-59
2023/03/28 08:19:16;;;;;;;2.53;1.38;;;9.20;1.00;;;;;;5033650;28;20041;-59
2023/03/28 08:21:42;;;;;;;5.22;1.50;;;9.20;99.90;;;;;;5041277;28;20112;-60
2023/03/28 08:24:10;;;;;;;12.98;2.08;;;9.30;99.90;;;;;;5047014;28;20048;-60
2023/03/28 08:26:36;;;;;;;10.20;2.13;;;9.50;99.90;;;;;;5039115;28;20044;-59
2023/03/28 08:29:03;;;;;;;2.45;1.73;;;9.50;99.90;;;;;;5045938;28;20081;-60
2023/03/28 08:31:29;;;;;;;5.30;1.92;;;9.80;99.90;;;;;;5042474;28;20040;-60
2023/03/28 08:33:56;;;;;;;6.10;1.80;;;9.80;99.90;;;;;;5041156;28;20060;-60
2023/03/28 08:36:25;;;;;;;4.30;1.60;;;10.50;99.90;;;;;;5048765;28;20045;-60
2023/03/28 08:38:53;;;;;;;6.80;1.65;;;9.80;99.90;;;;;;5037334;28;20064;-60
2023/03/28 08:41:50;;;;;;;5.10;1.60;;;9.80;95.70;;;;;;5050702;28;20069;-59
2023/03/28 08:44:33;;;;;;;8.45;2.13;;;9.70;72.50;;;;;;5050674;28;20048;-60
2023/03/28 08:47:21;;;;;;;3.10;1.55;;;9.60;56.80;;;;;;5046786;28;20138;-59
2023/03/28 08:49:53;;;;;;;4.20;1.67;;;9.40;47.70;;;;;;5033138;28;20128;-60
2023/03/28 08:52:20;;;;;;;5.43;1.52;;;9.50;32.20;;;;;;5033133;28;20029;-60
2023/03/28 08:54:50;;;;;;;3.78;1.83;;;9.50;24.50;;;;;;5048446;28;20044;-59
2023/03/28 08:57:20;;;;;;;6.00;1.70;;;9.50;21.00;;;;;;5035456;28;20037;-59
2023/03/28 09:00:09;;;;;;;6.68;2.10;;;9.40;15.60;;;;;;5044060;28;20053;-60
2023/03/28 09:02:35;;;;;;;6.70;1.73;;;9.50;13.20;;;;;;5043132;28;20048;-60
2023/03/28 09:05:01;;;;;;;7.60;2.25;;;9.60;18.40;;;;;;5036201;28;20037;-60
2023/03/28 09:07:39;;;;;;;6.80;2.08;;;9.80;31.00;;;;;;5041933;28;20033;-60
2023/03/28 09:10:25;;;;;;;6.80;1.70;;;10.00;30.00;;;;;;5036155;28;20056;-60
2023/03/28 09:13:22;;;;;;;5.60;2.00;;;10.20;22.90;;;;;;5046229;28;20033;-60
2023/03/28 09:16:05;;;;;;;4.88;1.83;;;10.40;26.20;;;;;;5033500;28;20077;-60
2023/03/28 09:18:56;;;;;;;3.85;1.60;;;10.40;19.80;;;;;;5038380;28;20091;-60
2023/03/28 09:21:54;;;;;;;3.25;1.50;;;10.10;16.80;;;;;;5042819;28;20792;-60
2023/03/28 09:24:32;;;;;;;5.78;1.90;;;9.50;9.10;;;;;;5045759;28;20049;-59
2023/03/28 09:27:05;;;;;;;5.65;1.85;;;9.30;11.40;;;;;;5048233;28;20057;-59
2023/03/28 09:29:33;;;;;;;4.93;1.60;;;9.10;14.60;;;;;;5039521;28;20029;-59
2023/03/28 09:32:03;;;;;;;3.08;1.67;;;9.10;25.50;;;;;;5040112;28;20049;-59
2023/03/28 09:34:37;;;;;;;4.97;1.63;;;9.00;32.80;;;;;;5046344;28;20045;-59
2023/03/28 09:37:26;;;;;;;5.30;2.20;;;9.00;52.90;;;;;;5039844;28;20030;-59
2023/03/28 09:39:55;;;;;;;2.22;1.60;;;8.90;53.00;;;;;;5042129;28;20804;-59
2023/03/28 09:42:35;;;;;;;3.70;1.98;;;8.80;59.20;;;;;;5051264;28;20032;-59
2023/03/28 09:45:29;;;;;;;6.55;2.10;;;8.80;62.20;;;;;;5049868;28;20033;-59
2023/03/28 09:47:55;;;;;;;6.55;2.30;;;8.90;78.50;;;;;;5045598;28;20124;-59
2023/03/28 09:50:21;;;;;;;6.30;2.05;;;9.00;82.90;;;;;;5042089;28;20468;-59
2023/03/28 09:52:49;;;;;;;4.25;2.47;;;9.10;90.50;;;;;;5032461;28;20076;-59
2023/03/28 09:55:18;;;;;;;7.20;1.88;;;9.30;92.90;;;;;;5039481;28;20040;-60
2023/03/28 09:58:04;;;;;;;3.17;1.85;;;9.60;97.10;;;;;;5031333;28;20049;-59
2023/03/28 10:00:41;;;;;;;5.88;2.20;;;9.90;95.50;;;;;;5040718;28;20044;-60
2023/03/28 10:03:31;;;;;;;3.30;1.85;;;9.90;68.80;;;;;;5033055;28;20045;-60
2023/03/28 10:06:18;;;;;;;6.88;2.67;;;9.70;52.20;;;;;;5043630;28;20034;-59
2023/03/28 10:08:44;;;;;;;4.90;2.38;;;9.60;44.10;;;;;;5038051;28;20072;-59
2023/03/28 10:11:16;;;;;;;8.93;3.25;;;9.50;53.80;;;;;;5044025;28;20033;-59
2023/03/28 10:13:47;;;;;;;6.97;2.17;;;9.50;55.10;;;;;;5041325;28;20414;-59
2023/03/28 10:16:16;;;;;;;5.63;2.38;;;9.50;46.50;;;;;;5031853;28;20073;-59
2023/03/28 10:18:42;;;;;;;5.63;2.40;;;9.60;44.90;;;;;;5031746;28;20042;-59
2023/03/28 10:21:20;;;;;;;4.85;2.45;;;9.50;32.80;;;;;;5041876;28;20037;-59
2023/03/28 10:24:03;;;;;;;7.03;2.55;;;9.30;27.60;;;;;;5047121;28;20040;-59
2023/03/28 10:26:29;;;;;;;4.50;2.33;;;9.30;30.50;;;;;;5040101;28;20099;-59
2023/03/28 10:28:59;;;;;;;5.85;2.38;;;9.30;36.70;;;;;;5033622;28;20040;-60
2023/03/28 10:31:30;;;;;;;6.90;2.50;;;9.20;49.20;;;;;;5039707;28;20052;-59
2023/03/28 10:33:58;;;;;;;3.45;1.80;;;9.10;39.50;;;;;;5042230;28;20060;-60
2023/03/28 10:36:42;;;;;;;4.35;2.30;;;9.00;29.20;;;;;;5038152;28;20099;-59
2023/03/28 10:39:23;;;;;;;9.60;2.33;;;9.10;31.10;;;;;;5034630;28;20495;-59
2023/03/28 10:41:54;;;;;;;3.60;2.17;;;9.10;29.10;;;;;;5048658;28;20037;-59
2023/03/28 10:44:31;;;;;;;5.72;2.45;;;9.10;27.90;;;;;;5046510;28;20034;-60
2023/03/28 10:47:09;;;;;;;9.50;2.10;;;9.30;52.20;;;;;;5044665;28;20048;-59
2023/03/28 10:49:50;;;;;;;3.78;2.50;;;9.70;45.50;;;;;;5048162;28;20043;-60
2023/03/28 10:52:21;;;;;;;9.38;2.42;;;9.80;29.90;;;;;;5050247;28;20032;-59
2023/03/28 10:54:52;;;;;;;6.85;2.53;;;9.60;16.80;;;;;;5050342;28;20151;-59
2023/03/28 10:57:24;;;;;;;4.07;1.98;;;9.60;8.80;;;;;;5044062;28;20495;-59
2023/03/28 10:59:53;;;;;;;8.93;2.95;;;9.60;6.30;;;;;;5039078;28;20040;-59
2023/03/28 11:02:54;;;;;;;8.40;3.13;;;9.50;1.00;;;;;;5042626;28;20049;-59
2023/03/28 11:05:27;;;;;;;6.57;3.00;;;9.40;2.60;;;;;;4971065;28;20037;-59
2023/03/28 11:08:01;;;;;;;6.30;2.83;;;9.20;1.00;;;;;;5034241;28;20124;-60
2023/03/28 11:10:36;;;;;;;4.40;2.50;;;9.50;12.90;;;;;;5043571;28;20146;-59
2023/03/28 11:13:08;;;;;;;9.07;2.88;;;9.40;14.70;;;;;;5051366;28;20045;-59
2023/03/28 11:16:04;;;;;;;4.97;2.92;;;9.50;17.30;;;;;;5035232;28;20420;-59
2023/03/28 11:18:39;;;;;;;6.10;2.55;;;9.20;3.10;;;;;;5039580;28;20444;-60
2023/03/28 11:21:26;;;;;;;8.85;3.33;;;9.40;22.30;;;;;;5006751;28;20052;-59
2023/03/28 11:24:24;;;;;;;6.97;3.25;;;9.60;31.40;;;;;;5030794;28;20053;-60
2023/03/28 11:26:58;;;;;;;8.35;2.58;;;9.80;31.30;;;;;;5031724;28;20148;-60
2023/03/28 11:29:48;;;;;;;6.68;3.35;;;9.80;31.60;;;;;;5040018;28;20162;-59
2023/03/28 11:32:46;;;;;;;5.45;2.83;;;9.80;38.80;;;;;;5041827;28;21268;-59
2023/03/28 11:35:26;;;;;;;8.55;3.15;;;9.80;38.10;;;;;;5036767;28;20053;-59
2023/03/28 11:38:01;;;;;;;7.22;3.08;;;9.50;25.30;;;;;;5057237;28;20041;-59
2023/03/28 11:40:36;;;;;;;9.80;3.13;;;9.30;19.30;;;;;;5040321;28;20095;-59
2023/03/28 11:43:07;;;;;;;8.25;3.10;;;9.30;22.50;;;;;;5048151;28;20515;-60
2023/03/28 11:45:41;;;;;;;13.82;3.38;;;9.40;39.20;;;;;;5042599;28;20132;-60
2023/03/28 11:48:30;;;;;;;5.65;2.88;;;9.30;44.50;;;;;;5038045;28;20502;-59
2023/03/28 11:51:20;;;;;;;8.90;3.25;;;9.30;56.40;;;;;;5040186;28;20136;-60
2023/03/28 11:54:29;;;;;;;8.93;3.13;;;9.20;67.70;;;;;;5033654;28;20072;-59
2023/03/28 11:57:05;;;;;;;10.13;3.00;;;9.10;66.00;;;;;;5039422;28;20045;-59
2023/03/28 12:00:14;;;;;;;6.28;2.88;;;9.10;89.80;;;;;;5041679;28;20041;-59
2023/03/28 12:02:46;;;;;;;6.00;3.10;;;9.20;94.20;;;;;;5007634;28;20053;-59
2023/03/28 12:05:21;;;;;;;7.70;2.95;;;9.10;90.40;;;;;;5034581;28;20064;-59
2023/03/28 12:08:12;;;;;;;3.85;2.58;;;9.20;89.60;;;;;;5044237;28;20048;-59
2023/03/28 12:10:42;;;;;;;6.78;2.97;;;9.10;81.70;;;;;;5051800;28;20049;-59
2023/03/28 12:13:17;;;;;;;13.63;3.55;;;9.10;70.60;;;;;;5038225;28;20553;-59
2023/03/28 12:15:43;;;;;;;14.93;3.28;;;9.00;63.00;;;;;;5033479;28;20049;-59
2023/03/28 12:18:31;;;;;;;5.53;2.88;;;8.90;60.90;;;;;;5044078;28;20041;-59
2023/03/28 12:21:09;;;;;;;5.97;3.13;;;8.80;46.50;;;;;;5041382;28;20072;-59
2023/03/28 12:23:37;;;;;;;7.78;3.05;;;8.70;49.60;;;;;;5046549;28;20045;-59
2023/03/28 12:26:32;;;;;;;9.05;2.90;;;8.80;62.70;;;;;;5049402;28;20045;-59
2023/03/28 12:29:03;;;;;;;4.70;2.75;;;8.90;65.60;;;;;;5013000;28;20107;-59
2023/03/28 12:31:41;;;;;;;7.22;2.67;;;8.80;51.10;;;;;;5041945;28;20545;-59
2023/03/28 12:34:35;;;;;;;7.63;2.47;;;8.90;58.50;;;;;;5034342;28;21974;-59
2023/03/28 12:37:16;;;;;;;14.05;2.75;;;8.90;54.80;;;;;;5045246;28;20044;-59
2023/03/28 12:39:49;;;;;;;4.82;2.40;;;8.80;27.50;;;;;;5050943;28;20057;-59
2023/03/28 12:42:17;;;;;;;4.30;2.55;;;8.80;36.90;;;;;;5039695;28;20399;-59
2023/03/28 12:45:03;;;;;;;4.75;2.28;;;8.80;24.40;;;;;;5046298;28;20368;-59
2023/03/28 12:47:35;;;;;;;11.75;2.95;;;8.80;23.20;;;;;;5049042;28;20076;-59
2023/03/28 12:50:38;;;;;;;11.07;2.65;;;8.70;19.40;;;;;;5051000;28;20588;-59
2023/03/28 12:53:05;;;;;;;7.97;2.47;;;8.70;27.50;;;;;;5035630;28;20045;-59
2023/03/28 12:55:33;;;;;;;8.27;3.03;;;9.00;49.50;;;;;;5033737;28;20045;-60
2023/03/28 12:58:33;;;;;;;5.68;3.17;;;8.90;40.30;;;;;;5043665;28;20065;-59
2023/03/28 13:01:07;;;;;;;5.85;3.28;;;9.00;50.40;;;;;;5033136;28;20128;-60
2023/03/28 13:04:00;;;;;;;7.60;3.25;;;9.00;61.30;;;;;;5037206;28;20116;-59
2023/03/28 13:06:51;;;;;;;7.22;3.05;;;8.90;59.10;;;;;;5046140;28;21564;-59
2023/03/28 13:09:39;;;;;;;7.63;3.47;;;8.70;54.90;;;;;;5038177;28;20424;-59
2023/03/28 13:12:29;;;;;;;4.90;2.83;;;8.60;41.30;;;;;;5039515;28;20061;-59
2023/03/28 13:15:24;;;;;;;8.05;3.33;;;8.70;57.90;;;;;;5035379;28;20085;-59
2023/03/28 13:18:20;;;;;;;12.18;3.33;;;8.80;56.20;;;;;;5039123;28;20120;-59
2023/03/28 13:20:50;;;;;;;10.32;3.85;;;8.70;49.40;;;;;;5040087;28;20124;-59
2023/03/28 13:23:20;;;;;;;4.80;2.70;;;8.70;52.30;;;;;;5032229;28;20065;-59